Sterling, Idaho
Current Conditions -  °F | °C
As of 1:53 AM on Sunday 26 Oct 2014 (Local Time) from KPIH Reporting Station
Overcast Overcast  
Wind Chill: 53°   Ceiling: 9000
Heat Index: 53°   Visibility: 10mi
Dew Point: 34°   Wind: 22mph
Humidity: 48%   Direction: 240°WSW
Pressure: 29.99"   Gusts: 32mph
Location:  43.1849°N, 112.825°W
Report Text: KPIH 260753Z AUTO 24019G28KT 10SM SCT065 OVC090 12/01 A2999 RMK AO2 PK WND 25035/0719 RAB0658E15 SLP114 P0000 T01170011
Loading
Personal Weather Stations






























Interactive Weather Map
Tropical Storm Tracking
New forecast layout! Learn more

10-Day Weather Forecast

Advertisements
Track Severe Weather on mobile